Time,TemperatureF,DewpointF,PressureIn,WindDirection,WindDirectionDegrees,WindSpeedMPH,WindSpeedGustMPH,Humidity,HourlyPrecipIn,Conditions,Clouds,dailyrainin,SoftwareType,DateUTC
2013-01-31 00:02:00,33.1,26.7,30.43,SW,225,1.0,5.0,77,0.00,,,0.00,Wunderground v.1.13,2013-01-31 08:02:00,
2013-01-31 00:32:00,33.1,26.7,30.43,SW,225,1.0,5.0,77,0.00,,,0.00,Wunderground v.1.13,2013-01-31 08:32:00,
2013-01-31 01:02:00,34.9,26.4,30.42,SW,225,3.0,7.0,71,0.00,,,0.00,Wunderground v.1.13,2013-01-31 09:02:00,
2013-01-31 01:32:00,32.3,25.6,30.43,SW,225,0.0,3.0,76,0.00,,,0.00,Wunderground v.1.13,2013-01-31 09:32:00,
2013-01-31 02:02:00,32.2,26.1,30.44,SW,225,0.0,3.0,78,0.00,,,0.00,Wunderground v.1.13,2013-01-31 10:02:00,
2013-01-31 02:32:00,33.6,25.9,30.40,SW,225,2.0,4.0,73,0.00,,,0.00,Wunderground v.1.13,2013-01-31 10:32:00,
2013-01-31 03:02:00,30.7,24.7,30.41,SW,225,0.0,2.0,78,0.00,,,0.00,Wunderground v.1.13,2013-01-31 11:02:00,
2013-01-31 03:32:00,30.5,24.8,30.40,SW,225,0.0,2.0,79,0.00,,,0.00,Wunderground v.1.13,2013-01-31 11:32:00,
2013-01-31 04:02:00,29.3,24.2,30.41,SW,225,0.0,1.0,81,0.00,,,0.00,Wunderground v.1.13,2013-01-31 12:02:00,
2013-01-31 04:32:00,28.6,23.8,30.43,N/A,-737280,0.0,0.0,82,0.00,,,0.00,Wunderground v.1.13,2013-01-31 12:32:00,
2013-01-31 05:02:00,28.3,23.5,30.44,N/A,-737280,0.0,0.0,82,0.00,,,0.00,Wunderground v.1.13,2013-01-31 13:02:00,
2013-01-31 05:32:00,28.3,24.1,30.44,N/A,-737280,0.0,0.0,84,0.00,,,0.00,Wunderground v.1.13,2013-01-31 13:32:00,
2013-01-31 06:02:00,28.3,24.1,30.44,SW,225,0.0,1.0,84,0.00,,,0.00,Wunderground v.1.13,2013-01-31 14:02:00,
2013-01-31 06:32:00,27.4,23.2,30.46,N/A,-737280,0.0,0.0,84,0.00,,,0.00,Wunderground v.1.13,2013-01-31 14:32:00,
2013-01-31 07:02:00,26.7,22.5,30.46,N/A,-737280,0.0,0.0,84,0.00,,,0.00,Wunderground v.1.13,2013-01-31 15:02:00,
2013-01-31 07:32:00,27.0,22.8,30.49,SW,225,0.0,1.0,84,0.00,,,0.00,Wunderground v.1.13,2013-01-31 15:32:00,
2013-01-31 08:02:00,29.3,24.2,30.48,SW,234,0.0,0.0,81,0.00,,,0.00,Wunderground v.1.13,2013-01-31 16:02:00,
2013-01-31 08:32:00,32.6,25.6,30.45,SW,234,0.0,0.0,75,0.00,,,0.00,Wunderground v.1.13,2013-01-31 16:32:00,
2013-01-31 09:02:00,33.4,26.0,30.45,SW,234,0.0,0.0,74,0.00,,,0.00,Wunderground v.1.13,2013-01-31 17:02:00,
2013-01-31 09:32:00,34.4,26.6,30.45,SW,234,0.0,0.0,73,0.00,,,0.00,Wunderground v.1.13,2013-01-31 17:32:00,
2013-01-31 10:02:00,36.6,27.4,30.44,SW,234,0.0,0.0,69,0.00,,,0.00,Wunderground v.1.13,2013-01-31 18:02:00,
2013-01-31 10:32:00,38.6,28.2,30.42,SW,234,1.0,1.0,66,0.00,,,0.00,Wunderground v.1.13,2013-01-31 18:32:00,
2013-01-31 11:02:00,40.5,28.5,30.40,SW,234,1.0,2.0,62,0.00,,,0.00,Wunderground v.1.13,2013-01-31 19:02:00,
2013-01-31 11:32:00,42.9,29.1,30.39,SW,234,0.0,2.0,58,0.00,,,0.00,Wunderground v.1.13,2013-01-31 19:32:00,
2013-01-31 12:02:00,45.5,29.8,30.36,SW,234,1.0,1.0,54,0.00,,,0.00,Wunderground v.1.13,2013-01-31 20:02:00,
2013-01-31 12:32:00,47.6,30.3,30.32,SW,234,1.0,1.0,51,0.00,,,0.00,Wunderground v.1.13,2013-01-31 20:32:00,
2013-01-31 13:02:00,49.0,31.2,30.29,SW,233,1.0,3.0,50,0.00,,,0.00,Wunderground v.1.13,2013-01-31 21:02:00,
2013-01-31 13:32:00,50.7,31.2,30.28,SW,224,1.0,1.0,47,0.00,,,0.00,Wunderground v.1.13,2013-01-31 21:32:00,
2013-01-31 14:02:00,52.2,30.4,30.25,SSW,213,0.0,0.0,43,0.00,,,0.00,Wunderground v.1.13,2013-01-31 22:02:00,
2013-01-31 14:32:00,52.3,30.4,30.25,SSW,212,1.0,2.0,43,0.00,,,0.00,Wunderground v.1.13,2013-01-31 22:32:00,
2013-01-31 15:02:00,54.2,30.4,30.24,SSW,213,1.0,1.0,40,0.00,,,0.00,Wunderground v.1.13,2013-01-31 23:02:00,
2013-01-31 15:32:00,54.5,30.6,30.23,SSW,213,1.0,2.0,40,0.00,,,0.00,Wunderground v.1.13,2013-01-31 23:32:00,
2013-01-31 16:02:00,53.3,30.2,30.25,SW,228,2.0,2.0,41,0.00,,,0.00,Wunderground v.1.13,2013-02-01 00:02:00,
2013-01-31 16:32:00,51.8,29.4,30.27,WSW,246,1.0,1.0,42,0.00,,,0.00,Wunderground v.1.13,2013-02-01 00:32:00,
2013-01-31 17:02:00,47.4,29.7,30.29,WSW,246,3.0,5.0,50,0.00,,,0.00,Wunderground v.1.13,2013-02-01 01:02:00,
2013-01-31 17:32:00,45.8,28.7,30.31,WSW,242,3.0,4.0,51,0.00,,,0.00,Wunderground v.1.13,2013-02-01 01:32:00,
2013-01-31 18:02:00,45.1,28.5,30.33,WSW,242,2.0,4.0,52,0.00,,,0.00,Wunderground v.1.13,2013-02-01 02:02:00,
2013-01-31 18:32:00,43.2,27.7,30.34,WSW,242,1.0,3.0,54,0.00,,,0.00,Wunderground v.1.13,2013-02-01 02:32:00,
2013-01-31 19:02:00,41.6,27.1,30.36,WSW,242,1.0,1.0,56,0.00,,,0.00,Wunderground v.1.13,2013-02-01 03:02:00,
2013-01-31 19:32:00,41.3,26.3,30.35,WSW,242,2.0,2.0,55,0.00,,,0.00,Wunderground v.1.13,2013-02-01 03:32:00,
2013-01-31 20:02:00,40.5,26.4,30.35,WSW,241,2.0,3.0,57,0.00,,,0.00,Wunderground v.1.13,2013-02-01 04:02:00,
2013-01-31 20:32:00,39.4,25.0,30.35,WSW,240,0.0,0.0,56,0.00,,,0.00,Wunderground v.1.13,2013-02-01 04:32:00,
2013-01-31 21:02:00,38.1,25.8,30.37,WSW,240,2.0,2.0,61,0.00,,,0.00,Wunderground v.1.13,2013-02-01 05:02:00,
2013-01-31 21:32:00,38.6,22.5,30.33,WSW,240,3.0,3.0,52,0.00,,,0.00,Wunderground v.1.13,2013-02-01 05:32:00,
2013-01-31 22:02:00,37.9,21.4,30.34,WSW,240,3.0,3.0,51,0.00,,,0.00,Wunderground v.1.13,2013-02-01 06:02:00,
2013-01-31 22:32:00,37.1,21.1,30.32,WSW,240,1.0,1.0,52,0.00,,,0.00,Wunderground v.1.13,2013-02-01 06:32:00,
2013-01-31 23:02:00,34.4,24.2,30.34,N/A,-737280,0.0,0.0,66,0.00,,,0.00,Wunderground v.1.13,2013-02-01 07:02:00,
2013-01-31 23:32:00,35.6,22.3,30.31,WSW,248,1.0,4.0,58,0.00,,,0.00,Wunderground v.1.13,2013-02-01 07:32:00,